Time;durP1;ratioP1;P1;durP2;ratioP2;P2;SDS_P1;SDS_P2;PMS_P1;PMS_P2;Temp;Humidity;BMP_temperature;BMP_pressure;BME280_temperature;BME280_humidity;BME280_pressure;Samples;Min_cycle;Max_cycle;Signal;HPM_P1;HPM_P2
2022/05/08 00:02:17;;;;;;;7.60;3.20;;;15.60;82.30;;;;;;5055032;28;20224;-61
2022/05/08 00:04:45;;;;;;;7.27;2.60;;;15.60;82.40;;;;;;5054853;28;20276;-61
2022/05/08 00:07:13;;;;;;;3.73;2.47;;;15.50;82.20;;;;;;5054587;28;20190;-60
2022/05/08 00:09:40;;;;;;;4.77;2.83;;;15.50;82.30;;;;;;5054912;28;20686;-61
2022/05/08 00:12:11;;;;;;;5.17;3.17;;;15.50;82.40;;;;;;5054884;28;20201;-60
2022/05/08 00:14:38;;;;;;;5.90;2.70;;;15.50;82.50;;;;;;5054724;28;20280;-60
2022/05/08 00:17:05;;;;;;;7.17;3.10;;;15.40;82.50;;;;;;5054665;28;20241;-61
2022/05/08 00:19:32;;;;;;;5.97;3.07;;;15.40;82.50;;;;;;5054914;28;20659;-61
2022/05/08 00:21:59;;;;;;;5.93;2.67;;;15.40;82.50;;;;;;5054795;28;20232;-63
2022/05/08 00:24:27;;;;;;;7.00;2.90;;;15.40;82.60;;;;;;5054406;28;20209;-61
2022/05/08 00:26:54;;;;;;;9.50;3.47;;;15.30;82.60;;;;;;5054758;28;20570;-61
2022/05/08 00:29:20;;;;;;;6.50;2.80;;;15.30;82.70;;;;;;5054277;28;20206;-60
2022/05/08 00:31:47;;;;;;;4.87;2.80;;;15.30;82.80;;;;;;5054360;28;20240;-60
2022/05/08 00:34:14;;;;;;;6.13;3.20;;;15.20;83.10;;;;;;5054121;28;20201;-61
2022/05/08 00:36:41;;;;;;;6.17;2.90;;;15.20;83.20;;;;;;5054236;28;20212;-61
2022/05/08 00:39:07;;;;;;;7.23;3.03;;;15.20;83.20;;;;;;5054087;28;20209;-60
2022/05/08 00:41:36;;;;;;;4.10;2.63;;;15.10;83.30;;;;;;5054115;28;20208;-62
2022/05/08 00:44:03;;;;;;;6.73;2.70;;;15.10;83.60;;;;;;5054369;28;20660;-62
2022/05/08 00:46:30;;;;;;;4.23;2.53;;;15.00;83.50;;;;;;5054380;28;20212;-61
2022/05/08 00:48:57;;;;;;;5.30;2.53;;;15.00;83.60;;;;;;5054386;28;20205;-60
2022/05/08 00:51:27;;;;;;;4.37;2.20;;;15.00;83.80;;;;;;5054139;28;20576;-60
2022/05/08 00:53:57;;;;;;;7.27;3.00;;;15.00;83.70;;;;;;5054016;28;20212;-61
2022/05/08 00:56:24;;;;;;;5.20;2.50;;;15.00;83.80;;;;;;5054122;28;20695;-59
2022/05/08 00:58:53;;;;;;;5.13;2.67;;;15.00;84.00;;;;;;5054195;28;20667;-61
2022/05/08 01:01:21;;;;;;;5.50;2.73;;;14.90;84.10;;;;;;5054306;28;20262;-61
2022/05/08 01:03:48;;;;;;;6.20;3.13;;;14.90;84.40;;;;;;5054081;28;20212;-60
2022/05/08 01:06:16;;;;;;;4.63;2.13;;;14.90;84.90;;;;;;5053528;28;20609;-60
2022/05/08 01:08:45;;;;;;;4.47;2.80;;;14.80;84.80;;;;;;5053734;28;20216;-61
2022/05/08 01:11:12;;;;;;;7.37;3.00;;;14.80;84.70;;;;;;5053732;28;20222;-61
2022/05/08 01:13:40;;;;;;;7.20;3.13;;;14.80;85.50;;;;;;5053915;28;20683;-61
2022/05/08 01:16:09;;;;;;;4.00;2.77;;;14.80;84.80;;;;;;5053735;28;20687;-61
2022/05/08 01:18:36;;;;;;;6.53;2.73;;;14.80;84.90;;;;;;5053940;28;20209;-61
2022/05/08 01:21:03;;;;;;;4.60;2.43;;;14.80;85.00;;;;;;5053559;28;20201;-61
2022/05/08 01:23:31;;;;;;;5.80;2.80;;;14.70;84.90;;;;;;5053810;28;20212;-60
2022/05/08 01:25:58;;;;;;;4.67;2.87;;;14.70;85.20;;;;;;5053248;28;20209;-59
2022/05/08 01:28:26;;;;;;;4.63;2.87;;;14.70;85.30;;;;;;5053646;28;20201;-61
2022/05/08 01:30:54;;;;;;;5.37;2.30;;;14.70;85.30;;;;;;5053322;28;20298;-60
2022/05/08 01:33:22;;;;;;;3.90;2.57;;;14.60;85.30;;;;;;5053219;28;20205;-61
2022/05/08 01:35:50;;;;;;;4.77;2.60;;;14.60;85.70;;;;;;5053629;28;20571;-61
2022/05/08 01:38:18;;;;;;;4.83;2.80;;;14.60;85.70;;;;;;5053311;28;20628;-61
2022/05/08 01:40:46;;;;;;;6.83;2.90;;;14.50;85.80;;;;;;5053370;28;20202;-61
2022/05/08 01:43:14;;;;;;;4.23;2.63;;;14.50;85.80;;;;;;5053204;28;20616;-61
2022/05/08 01:45:41;;;;;;;5.53;2.80;;;14.50;86.00;;;;;;5053327;28;20209;-61
2022/05/08 01:48:25;;;;;;;3.53;2.60;;;14.50;86.20;;;;;;5052727;28;20209;-61
2022/05/08 01:50:53;;;;;;;6.53;2.87;;;14.40;86.30;;;;;;5052382;28;20690;-60
2022/05/08 01:53:21;;;;;;;4.47;2.47;;;14.40;86.40;;;;;;5053117;28;20216;-60
2022/05/08 01:55:52;;;;;;;3.67;2.50;;;14.40;86.50;;;;;;5053048;28;20209;-60
2022/05/08 01:58:19;;;;;;;4.57;2.60;;;14.30;86.60;;;;;;5052990;28;20194;-61
2022/05/08 02:00:46;;;;;;;3.80;2.47;;;14.30;87.00;;;;;;5053166;28;20201;-61
2022/05/08 02:03:14;;;;;;;4.10;2.60;;;14.30;86.80;;;;;;5052930;28;20304;-62
2022/05/08 02:05:42;;;;;;;5.30;3.07;;;14.30;86.90;;;;;;5052594;28;20277;-60
2022/05/08 02:08:10;;;;;;;7.17;2.67;;;14.30;87.20;;;;;;5052431;28;20205;-61
2022/05/08 02:10:36;;;;;;;7.13;3.07;;;14.20;87.20;;;;;;5052713;28;20229;-59
2022/05/08 02:13:07;;;;;;;2.80;2.20;;;14.20;87.20;;;;;;5052580;28;20208;-60
2022/05/08 02:15:34;;;;;;;5.73;2.83;;;14.20;87.30;;;;;;5052823;28;20193;-61
2022/05/08 02:18:02;;;;;;;6.37;2.80;;;14.10;87.40;;;;;;5052081;28;20236;-60
2022/05/08 02:20:29;;;;;;;6.77;3.07;;;14.10;87.60;;;;;;5052056;28;20343;-61
2022/05/08 02:22:56;;;;;;;6.23;2.90;;;14.10;87.90;;;;;;5051940;28;20232;-60
2022/05/08 02:25:24;;;;;;;7.43;2.73;;;14.00;88.00;;;;;;5052103;28;20539;-61
2022/05/08 02:27:51;;;;;;;5.83;3.03;;;14.00;88.00;;;;;;5052312;28;20216;-61
2022/05/08 02:30:21;;;;;;;6.95;2.95;;;14.00;88.10;;;;;;5052150;28;20216;-61
2022/05/08 02:32:49;;;;;;;5.67;2.80;;;14.00;88.30;;;;;;5052111;28;20668;-61
2022/05/08 02:35:17;;;;;;;5.13;3.10;;;14.00;88.20;;;;;;5052293;28;20428;-61
2022/05/08 02:37:44;;;;;;;9.43;3.07;;;14.00;88.30;;;;;;5052292;28;20281;-61
2022/05/08 02:40:11;;;;;;;6.30;3.47;;;14.00;88.50;;;;;;5052038;28;20221;-60
2022/05/08 02:42:39;;;;;;;5.03;2.83;;;13.90;88.50;;;;;;5052249;28;20201;-60
2022/05/08 02:45:08;;;;;;;5.10;3.10;;;13.90;88.60;;;;;;5051642;28;20205;-60
2022/05/08 02:47:37;;;;;;;6.00;2.70;;;13.90;88.60;;;;;;5052122;28;20279;-60
2022/05/08 02:50:05;;;;;;;5.10;2.60;;;13.90;88.70;;;;;;5052015;28;20201;-63
2022/05/08 02:52:32;;;;;;;5.43;2.63;;;13.90;88.80;;;;;;5052006;28;20355;-62
2022/05/08 02:58:32;;;;;;;6.83;3.10;;;13.90;89.10;;;;;;5051408;28;20224;-60
2022/05/08 03:00:35;;;;;;;5.17;2.70;;;13.80;90.10;;;;;;5051740;28;20185;-60
2022/05/08 03:03:05;;;;;;;6.10;2.90;;;13.70;90.10;;;;;;5051647;28;20209;-61
2022/05/08 03:05:32;;;;;;;7.57;3.30;;;13.70;90.30;;;;;;5051476;28;20248;-60
2022/05/08 03:07:59;;;;;;;6.67;3.93;;;13.70;90.30;;;;;;5051421;28;20218;-61
2022/05/08 03:10:26;;;;;;;4.90;3.27;;;13.70;90.40;;;;;;5051818;28;20614;-61
2022/05/08 03:12:52;;;;;;;5.73;3.20;;;13.70;90.40;;;;;;5051408;28;20240;-61
2022/05/08 03:15:19;;;;;;;8.07;3.53;;;13.70;90.40;;;;;;5051222;28;20205;-62
2022/05/08 03:17:47;;;;;;;6.17;3.20;;;13.80;90.40;;;;;;5051537;28;20656;-61
2022/05/08 03:20:15;;;;;;;9.13;3.50;;;13.80;90.30;;;;;;5051672;28;20564;-61
2022/05/08 03:22:42;;;;;;;6.03;3.10;;;13.80;90.40;;;;;;5051514;28;20224;-61
2022/05/08 03:25:09;;;;;;;6.27;2.87;;;13.90;90.70;;;;;;5051284;28;20216;-60
2022/05/08 03:27:36;;;;;;;6.77;2.87;;;13.90;90.30;;;;;;5051389;28;20209;-62
2022/05/08 03:30:03;;;;;;;6.23;3.10;;;13.90;90.30;;;;;;5051172;28;20209;-61
2022/05/08 03:32:31;;;;;;;8.03;3.43;;;13.90;90.40;;;;;;5051556;28;20225;-60
2022/05/08 03:34:58;;;;;;;5.27;2.80;;;13.90;90.40;;;;;;5051554;28;20201;-61
2022/05/08 03:37:26;;;;;;;8.80;2.80;;;14.00;90.50;;;;;;5051366;28;20212;-61
2022/05/08 03:39:53;;;;;;;6.80;2.93;;;14.00;90.50;;;;;;5051467;28;20202;-60
2022/05/08 03:42:20;;;;;;;5.47;2.80;;;14.00;90.50;;;;;;5051190;28;20197;-62
2022/05/08 03:44:47;;;;;;;6.47;2.90;;;14.10;90.50;;;;;;5051374;28;20310;-61
2022/05/08 03:47:14;;;;;;;4.93;3.10;;;14.20;90.50;;;;;;5051586;28;20205;-60
2022/05/08 03:49:40;;;;;;;4.23;2.70;;;14.20;90.60;;;;;;5051274;28;20227;-60
2022/05/08 03:52:07;;;;;;;5.37;3.17;;;14.30;90.70;;;;;;5051327;28;20217;-60
2022/05/08 03:54:35;;;;;;;8.77;3.47;;;14.30;90.70;;;;;;5050837;28;20209;-61
2022/05/08 03:57:02;;;;;;;7.37;3.13;;;14.40;90.70;;;;;;5051222;28;20201;-60
2022/05/08 03:59:29;;;;;;;6.33;3.33;;;14.40;90.60;;;;;;5051158;28;20205;-60
2022/05/08 04:01:56;;;;;;;7.13;3.60;;;14.50;90.60;;;;;;5051121;28;20228;-62
2022/05/08 04:04:23;;;;;;;5.80;3.30;;;14.60;90.60;;;;;;5051233;28;20210;-61
2022/05/08 04:06:50;;;;;;;6.77;3.60;;;14.70;90.60;;;;;;5050705;28;20241;-60
2022/05/08 04:09:17;;;;;;;6.50;3.27;;;14.70;90.60;;;;;;5051139;28;20205;-60
2022/05/08 04:11:45;;;;;;;5.63;3.03;;;14.80;90.60;;;;;;5050634;28;20222;-60
2022/05/08 04:14:12;;;;;;;7.07;3.40;;;14.90;90.50;;;;;;5052730;28;20296;-61
2022/05/08 04:16:38;;;;;;;8.00;3.57;;;14.90;90.50;;;;;;5054729;28;20228;-61
2022/05/08 04:19:06;;;;;;;7.77;3.37;;;14.90;90.50;;;;;;5054767;28;20205;-61
2022/05/08 04:21:33;;;;;;;5.70;3.50;;;14.90;90.50;;;;;;5054546;28;20608;-60
2022/05/08 04:24:17;;;;;;;7.13;3.23;;;15.00;90.40;;;;;;5054761;28;20209;-60
2022/05/08 04:26:45;;;;;;;5.90;3.87;;;15.00;90.40;;;;;;5054324;28;20185;-61
2022/05/08 04:29:12;;;;;;;6.43;3.07;;;15.00;90.40;;;;;;5054263;28;20213;-60
2022/05/08 04:31:39;;;;;;;4.57;3.13;;;15.00;90.40;;;;;;5054276;28;20312;-61
2022/05/08 04:34:06;;;;;;;6.37;3.43;;;15.10;90.40;;;;;;5054422;28;20201;-60
2022/05/08 04:36:33;;;;;;;5.77;3.20;;;15.20;90.40;;;;;;5054715;28;20225;-60
2022/05/08 04:39:00;;;;;;;6.87;3.63;;;15.20;90.40;;;;;;5054128;28;20267;-61
2022/05/08 04:41:27;;;;;;;8.70;3.87;;;15.20;90.50;;;;;;5054144;28;20209;-61
2022/05/08 04:43:59;;;;;;;6.27;3.57;;;15.30;90.60;;;;;;5054401;28;20300;-62
2022/05/08 04:46:27;;;;;;;7.87;3.43;;;15.30;90.50;;;;;;5054504;28;20190;-62
2022/05/08 04:48:53;;;;;;;6.20;3.60;;;15.40;90.70;;;;;;5054265;28;20201;-61
2022/05/08 04:51:20;;;;;;;7.07;3.33;;;15.50;90.90;;;;;;5054113;28;20232;-64
2022/05/08 04:53:47;;;;;;;6.13;3.27;;;15.60;90.80;;;;;;5054089;28;20210;-61
2022/05/08 04:56:14;;;;;;;6.43;3.77;;;15.70;90.50;;;;;;5054166;28;20201;-61
2022/05/08 04:58:41;;;;;;;9.07;3.90;;;15.80;90.40;;;;;;5053578;28;20209;-60
2022/05/08 05:01:09;;;;;;;5.17;3.20;;;15.90;90.40;;;;;;5053735;28;20205;-61
2022/05/08 05:03:36;;;;;;;7.37;3.80;;;16.00;90.20;;;;;;5053950;28;20617;-62
2022/05/08 05:06:03;;;;;;;7.17;3.20;;;16.00;90.20;;;;;;5053414;28;20243;-60
2022/05/08 05:08:30;;;;;;;7.10;3.73;;;16.10;90.10;;;;;;5053844;28;20209;-62
2022/05/08 05:10:56;;;;;;;7.53;4.03;;;16.10;90.20;;;;;;5053785;28;20570;-64
2022/05/08 05:13:23;;;;;;;6.00;3.60;;;16.10;90.30;;;;;;5053597;28;20589;-61
2022/05/08 05:15:50;;;;;;;8.23;3.40;;;16.10;90.20;;;;;;5053957;28;20229;-60
2022/05/08 05:18:18;;;;;;;8.53;3.50;;;16.10;90.20;;;;;;5053466;28;20689;-61
2022/05/08 05:20:46;;;;;;;7.57;3.77;;;16.20;90.20;;;;;;5053357;28;20212;-61
2022/05/08 05:23:13;;;;;;;8.67;3.80;;;16.20;90.30;;;;;;5053643;28;20275;-62
2022/05/08 05:25:40;;;;;;;5.67;3.50;;;16.20;90.40;;;;;;5051876;28;20210;-61
2022/05/08 05:28:07;;;;;;;7.47;3.83;;;16.20;90.40;;;;;;5053566;28;20205;-60
2022/05/08 05:30:33;;;;;;;6.87;3.73;;;16.20;90.60;;;;;;5053268;28;20206;-61
2022/05/08 05:33:00;;;;;;;6.47;3.50;;;16.30;90.50;;;;;;5053188;28;20235;-61
2022/05/08 05:35:28;;;;;;;5.73;3.43;;;16.40;90.40;;;;;;5052908;28;20209;-60
2022/05/08 05:37:55;;;;;;;7.13;3.67;;;16.50;90.30;;;;;;5053316;28;20683;-62
2022/05/08 05:40:22;;;;;;;7.90;3.90;;;16.50;90.30;;;;;;5052852;28;20210;-61
2022/05/08 05:42:49;;;;;;;6.70;3.50;;;16.60;90.50;;;;;;5053377;28;20213;-61
2022/05/08 05:45:15;;;;;;;5.30;3.60;;;16.60;90.30;;;;;;5053317;28;20206;-61
2022/05/08 05:47:50;;;;;;;12.37;3.97;;;16.60;90.40;;;;;;5052749;28;20205;-62
2022/05/08 05:50:17;;;;;;;6.97;3.73;;;16.70;90.30;;;;;;5053234;28;20189;-61
2022/05/08 05:52:46;;;;;;;8.93;3.70;;;16.80;90.50;;;;;;5053089;28;20316;-64
2022/05/08 05:55:12;;;;;;;5.00;3.47;;;16.90;90.50;;;;;;5052862;28;20211;-61
2022/05/08 05:57:40;;;;;;;6.93;3.33;;;16.90;90.60;;;;;;5053079;28;20221;-61
2022/05/08 06:00:09;;;;;;;8.10;3.80;;;17.00;90.60;;;;;;5053063;28;20207;-61
2022/05/08 06:02:36;;;;;;;6.77;3.60;;;17.10;90.70;;;;;;5052573;28;20209;-61
2022/05/08 06:05:03;;;;;;;9.07;4.33;;;17.20;90.50;;;;;;5052608;28;20233;-62
2022/05/08 06:07:30;;;;;;;12.90;4.07;;;17.30;90.10;;;;;;5052660;28;20195;-62
2022/05/08 06:09:58;;;;;;;8.07;4.27;;;17.40;90.00;;;;;;5052926;28;20201;-61
2022/05/08 06:12:25;;;;;;;8.57;3.90;;;17.50;90.00;;;;;;5052630;28;20649;-62
2022/05/08 06:14:53;;;;;;;7.83;3.90;;;17.50;89.60;;;;;;5052714;28;20212;-61
2022/05/08 06:17:20;;;;;;;8.20;3.97;;;17.60;89.80;;;;;;5052589;28;20683;-61
2022/05/08 06:19:47;;;;;;;10.50;4.23;;;17.60;89.60;;;;;;5052704;28;20574;-62
2022/05/08 06:22:13;;;;;;;8.33;4.37;;;17.80;89.40;;;;;;5052298;28;20663;-62
2022/05/08 06:24:40;;;;;;;8.23;4.43;;;17.80;88.80;;;;;;5052377;28;20206;-61
2022/05/08 06:27:08;;;;;;;8.00;4.23;;;17.80;88.20;;;;;;5052263;28;20209;-64
2022/05/08 06:29:35;;;;;;;7.53;3.87;;;17.80;88.80;;;;;;5051915;28;20222;-62
2022/05/08 06:32:03;;;;;;;13.80;3.80;;;17.90;88.50;;;;;;5052367;28;20560;-62
2022/05/08 06:34:30;;;;;;;9.90;4.00;;;17.90;88.30;;;;;;5052215;28;20316;-62
2022/05/08 06:36:57;;;;;;;6.80;3.90;;;17.90;88.10;;;;;;5051983;28;20207;-62
2022/05/08 06:39:23;;;;;;;9.17;4.70;;;18.10;87.70;;;;;;5052044;28;20201;-62
2022/05/08 06:41:50;;;;;;;9.97;4.30;;;18.20;87.40;;;;;;5052586;28;20203;-62
2022/05/08 06:44:18;;;;;;;8.60;4.27;;;18.20;86.80;;;;;;5051924;28;20209;-63
2022/05/08 06:46:45;;;;;;;6.90;4.37;;;18.30;87.00;;;;;;5052051;28;20221;-60
2022/05/08 06:49:12;;;;;;;9.40;4.10;;;18.40;86.90;;;;;;5051978;28;20203;-61
2022/05/08 06:51:39;;;;;;;10.53;4.90;;;18.50;87.20;;;;;;5051945;28;20239;-61
2022/05/08 06:54:06;;;;;;;8.03;4.40;;;18.70;86.70;;;;;;5051734;28;20208;-61
2022/05/08 06:56:35;;;;;;;9.43;4.20;;;18.80;86.60;;;;;;5051907;28;20690;-62
2022/05/08 07:01:49;;;;;;;6.77;4.37;;;19.00;85.90;;;;;;5051843;28;20192;-61
2022/05/08 07:04:16;;;;;;;8.13;4.27;;;19.10;86.10;;;;;;5051598;28;20219;-62
2022/05/08 07:06:42;;;;;;;7.30;4.40;;;19.30;86.40;;;;;;5051368;28;20302;-64
2022/05/08 07:09:10;;;;;;;7.87;4.63;;;19.30;85.80;;;;;;5051926;28;20213;-62
2022/05/08 07:11:37;;;;;;;10.93;4.67;;;19.40;85.60;;;;;;5051791;28;20212;-62
2022/05/08 07:14:04;;;;;;;8.27;4.47;;;19.50;85.30;;;;;;5051862;28;20314;-62
2022/05/08 07:16:31;;;;;;;9.77;5.67;;;19.60;85.30;;;;;;5051561;28;20214;-62
2022/05/08 07:18:59;;;;;;;10.88;5.00;;;19.70;84.80;;;;;;5051041;28;20425;-63
2022/05/08 07:21:26;;;;;;;8.63;4.60;;;19.80;84.30;;;;;;5051354;28;20315;-61
2022/05/08 07:23:55;;;;;;;9.63;4.23;;;19.90;84.10;;;;;;5051593;28;20198;-62
2022/05/08 07:26:22;;;;;;;10.77;4.73;;;19.90;83.80;;;;;;5051076;28;20242;-63
2022/05/08 07:28:49;;;;;;;10.20;5.23;;;19.80;82.60;;;;;;5051610;28;20276;-62
2022/05/08 07:31:17;;;;;;;12.17;5.77;;;19.80;83.10;;;;;;5051394;28;20293;-63
2022/05/08 07:33:43;;;;;;;8.27;4.70;;;19.80;83.40;;;;;;5050957;28;20228;-64
2022/05/08 07:36:13;;;;;;;13.87;5.40;;;19.70;83.10;;;;;;5051060;28;20209;-61
2022/05/08 07:38:42;;;;;;;7.70;4.10;;;19.70;83.70;;;;;;5051459;28;20289;-62
2022/05/08 07:41:09;;;;;;;6.27;4.00;;;19.70;83.90;;;;;;5050975;28;20304;-61
2022/05/08 07:43:37;;;;;;;9.17;4.70;;;19.70;84.20;;;;;;5051422;28;20659;-63
2022/05/08 07:46:05;;;;;;;10.27;4.90;;;19.70;84.10;;;;;;5051429;28;20312;-62
2022/05/08 07:48:32;;;;;;;9.40;5.03;;;19.80;83.60;;;;;;5051608;28;20209;-63
2022/05/08 07:51:00;;;;;;;9.00;4.40;;;19.90;83.10;;;;;;5055181;28;20213;-63
2022/05/08 07:53:29;;;;;;;9.47;4.47;;;19.90;82.80;;;;;;5054922;28;20227;-61
2022/05/08 07:55:57;;;;;;;9.53;4.80;;;20.00;82.20;;;;;;5055280;28;20216;-62
2022/05/08 07:58:24;;;;;;;10.30;4.53;;;20.00;82.30;;;;;;5055113;28;20205;-62
2022/05/08 08:00:53;;;;;;;6.77;4.10;;;20.00;81.90;;;;;;5055049;28;20667;-61
2022/05/08 08:03:21;;;;;;;11.77;4.77;;;20.00;81.60;;;;;;5054770;28;20202;-62
2022/05/08 08:05:48;;;;;;;9.00;4.50;;;20.10;81.30;;;;;;5054356;28;20237;-61
2022/05/08 08:08:16;;;;;;;11.10;4.37;;;20.10;81.70;;;;;;5054933;28;20202;-62
2022/05/08 08:10:45;;;;;;;26.43;5.10;;;20.20;81.40;;;;;;5055065;28;20215;-61
2022/05/08 08:13:11;;;;;;;9.30;4.53;;;20.20;80.90;;;;;;5054758;28;20693;-62
2022/05/08 08:15:39;;;;;;;8.13;4.90;;;20.30;81.20;;;;;;5055056;28;20205;-61
2022/05/08 08:18:07;;;;;;;9.97;5.23;;;20.30;82.10;;;;;;5054694;28;20212;-61
2022/05/08 08:20:34;;;;;;;8.63;4.20;;;20.30;81.50;;;;;;5054727;28;20228;-62
2022/05/08 08:23:00;;;;;;;8.90;4.03;;;20.30;80.00;;;;;;5054428;28;20201;-62
2022/05/08 08:25:27;;;;;;;8.97;4.87;;;20.30;78.80;;;;;;5054467;28;20213;-62
2022/05/08 08:27:56;;;;;;;16.87;5.10;;;20.30;78.50;;;;;;5054717;28;20652;-61
2022/05/08 08:30:23;;;;;;;7.83;4.00;;;20.30;78.80;;;;;;5054536;28;20205;-62
2022/05/08 08:32:50;;;;;;;10.57;4.13;;;20.40;79.30;;;;;;5054467;28;20236;-62
2022/05/08 08:35:16;;;;;;;7.17;4.17;;;20.40;79.10;;;;;;5054441;28;20212;-62
2022/05/08 08:37:43;;;;;;;8.73;4.43;;;20.40;79.60;;;;;;5054579;28;20209;-60
2022/05/08 08:40:11;;;;;;;10.50;4.67;;;20.50;79.80;;;;;;5054541;28;20539;-61
2022/05/08 08:42:41;;;;;;;8.03;4.23;;;20.50;78.90;;;;;;5054568;28;20204;-60
2022/05/08 08:47:58;;;;;;;8.23;4.23;;;20.60;79.90;;;;;;5054160;28;20264;-62
2022/05/08 08:50:26;;;;;;;10.80;4.07;;;20.80;79.20;;;;;;5054323;28;20695;-62
2022/05/08 08:52:54;;;;;;;10.67;4.43;;;20.80;78.60;;;;;;5053795;28;20225;-62
2022/05/08 08:55:22;;;;;;;8.13;4.57;;;20.90;78.00;;;;;;5053930;28;20667;-62
2022/05/08 08:57:49;;;;;;;9.53;4.70;;;21.00;76.00;;;;;;5053590;28;20201;-61
2022/05/08 09:00:20;;;;;;;11.87;4.97;;;21.00;76.40;;;;;;5053816;28;20680;-63
2022/05/08 09:02:48;;;;;;;15.97;4.30;;;21.00;76.60;;;;;;5053938;28;20186;-61
2022/05/08 09:05:15;;;;;;;6.83;3.80;;;21.10;75.90;;;;;;5053571;28;20750;-62
2022/05/08 09:07:44;;;;;;;7.90;3.90;;;21.10;75.10;;;;;;5053902;28;20214;-62
2022/05/08 09:10:15;;;;;;;8.23;4.20;;;21.20;76.00;;;;;;5053830;28;20205;-61
2022/05/08 09:12:44;;;;;;;7.63;4.10;;;21.30;75.00;;;;;;5053536;28;20217;-61
2022/05/08 09:15:26;;;;;;;6.30;3.90;;;21.40;74.70;;;;;;5053588;28;20205;-62
2022/05/08 09:17:54;;;;;;;9.27;4.43;;;21.40;74.50;;;;;;5053827;28;20614;-61
2022/05/08 09:20:32;;;;;;;8.63;4.07;;;21.50;73.90;;;;;;5053983;28;20598;-62
2022/05/08 09:23:11;;;;;;;7.20;4.40;;;21.60;72.90;;;;;;5054005;28;20203;-62
2022/05/08 09:25:52;;;;;;;10.53;4.07;;;21.60;74.20;;;;;;5053904;28;20569;-61
2022/05/08 09:28:20;;;;;;;9.70;4.23;;;21.70;73.90;;;;;;5053785;28;20655;-61
2022/05/08 09:31:07;;;;;;;7.57;4.27;;;21.80;74.40;;;;;;5053400;28;20211;-62
2022/05/08 09:33:36;;;;;;;10.37;4.33;;;21.80;74.60;;;;;;5053594;28;20210;-61
2022/05/08 09:36:04;;;;;;;8.20;4.00;;;21.80;75.30;;;;;;5053449;28;20689;-61
2022/05/08 09:38:45;;;;;;;9.90;4.50;;;21.80;75.30;;;;;;5053526;28;20577;-62
2022/05/08 09:41:13;;;;;;;9.60;4.60;;;21.80;75.70;;;;;;5053153;28;20191;-61
2022/05/08 09:43:41;;;;;;;11.40;5.43;;;21.90;76.10;;;;;;5053353;28;20201;-63
2022/05/08 09:46:10;;;;;;;13.53;5.17;;;22.00;75.50;;;;;;5053199;28;20212;-62
2022/05/08 09:48:37;;;;;;;7.63;4.00;;;22.10;75.30;;;;;;5053324;28;20231;-60
2022/05/08 09:51:05;;;;;;;7.50;4.13;;;22.20;74.30;;;;;;5052897;28;20206;-62
2022/05/08 09:53:33;;;;;;;7.13;3.60;;;22.30;74.10;;;;;;5052865;28;20608;-62
2022/05/08 09:56:01;;;;;;;6.67;3.90;;;22.40;72.60;;;;;;5052478;28;20323;-60
2022/05/08 09:58:28;;;;;;;7.90;3.87;;;22.50;72.50;;;;;;5052671;28;20266;-63
2022/05/08 10:00:56;;;;;;;6.23;3.70;;;22.50;72.70;;;;;;5052705;28;20572;-63
2022/05/08 10:03:24;;;;;;;7.10;3.73;;;22.50;71.60;;;;;;5052821;28;20202;-62
2022/05/08 10:05:52;;;;;;;6.17;3.80;;;22.50;71.40;;;;;;5052215;28;20332;-62
2022/05/08 10:08:22;;;;;;;9.53;3.97;;;22.60;71.40;;;;;;5052621;28;20225;-62
2022/05/08 10:13:56;;;;;;;7.87;4.23;;;22.80;71.80;;;;;;5052499;28;20213;-62
2022/05/08 10:16:45;;;;;;;7.23;4.03;;;22.90;71.70;;;;;;5052820;28;20194;-61
2022/05/08 10:19:55;;;;;;;6.10;3.87;;;22.90;71.90;;;;;;5052366;28;20212;-61
2022/05/08 10:22:24;;;;;;;8.60;3.93;;;22.80;71.80;;;;;;5052610;28;20243;-61
2022/05/08 10:25:15;;;;;;;8.00;3.60;;;22.80;70.00;;;;;;5052518;28;20643;-62
2022/05/08 10:27:43;;;;;;;8.73;4.30;;;22.70;69.50;;;;;;5052261;28;20190;-60
2022/05/08 10:30:31;;;;;;;6.93;4.07;;;22.70;70.00;;;;;;5052504;28;20376;-61
2022/05/08 10:32:59;;;;;;;6.03;3.90;;;22.70;70.20;;;;;;5052302;28;20197;-61
2022/05/08 10:35:27;;;;;;;7.90;4.57;;;22.70;70.40;;;;;;5052015;28;20216;-61
2022/05/08 10:38:24;;;;;;;7.23;3.80;;;22.70;70.90;;;;;;5051973;28;20522;-62
2022/05/08 10:40:55;;;;;;;9.27;3.83;;;22.60;69.40;;;;;;5052169;28;20276;-62
2022/05/08 10:43:28;;;;;;;6.80;4.00;;;22.60;69.60;;;;;;5052301;28;20208;-61
2022/05/08 10:45:56;;;;;;;8.03;3.93;;;22.70;70.30;;;;;;5052202;28;20306;-61
2022/05/08 10:48:28;;;;;;;6.03;3.90;;;22.70;69.40;;;;;;5051865;28;20216;-63
2022/05/08 10:50:56;;;;;;;6.67;3.93;;;22.80;70.10;;;;;;5051954;28;20193;-62
2022/05/08 10:53:26;;;;;;;5.63;3.60;;;22.80;70.00;;;;;;5051477;28;20225;-62
2022/05/08 10:55:59;;;;;;;9.67;3.70;;;22.80;69.60;;;;;;5051895;28;20204;-61
2022/05/08 10:58:26;;;;;;;8.20;4.30;;;22.80;70.60;;;;;;5051712;28;20193;-61
2022/05/08 11:00:57;;;;;;;10.70;3.90;;;22.80;71.40;;;;;;5051873;28;20256;-62
2022/05/08 11:03:25;;;;;;;10.00;4.27;;;22.70;71.90;;;;;;5051607;28;20195;-61
2022/05/08 11:05:53;;;;;;;12.67;4.63;;;22.70;72.20;;;;;;5051314;28;20667;-61
2022/05/08 11:08:31;;;;;;;6.80;4.13;;;22.70;72.80;;;;;;5051684;28;20209;-61
2022/05/08 11:11:02;;;;;;;7.93;3.87;;;22.60;72.40;;;;;;5051824;28;20284;-60
2022/05/08 11:13:39;;;;;;;8.27;4.00;;;22.60;72.60;;;;;;5051387;28;20220;-63
2022/05/08 11:16:06;;;;;;;8.67;4.20;;;22.60;72.70;;;;;;5051922;28;20190;-64
2022/05/08 11:18:32;;;;;;;11.37;4.07;;;22.60;72.60;;;;;;5051508;28;20206;-62
2022/05/08 11:21:01;;;;;;;10.20;4.10;;;22.50;72.30;;;;;;5051275;28;20238;-62
2022/05/08 11:23:30;;;;;;;8.53;4.10;;;22.60;72.60;;;;;;5050836;28;20201;-62
2022/05/08 11:25:58;;;;;;;5.07;3.93;;;22.60;72.20;;;;;;5051306;28;20201;-61
2022/05/08 11:28:26;;;;;;;9.83;4.27;;;22.70;71.00;;;;;;5051691;28;20201;-61
2022/05/08 11:30:54;;;;;;;7.20;4.43;;;22.80;69.40;;;;;;5051558;28;20209;-62
2022/05/08 11:36:23;;;;;;;8.03;4.00;;;22.90;67.30;;;;;;5051457;28;20197;-62
2022/05/08 11:38:55;;;;;;;5.47;3.50;;;22.90;67.50;;;;;;5051907;28;20629;-61
2022/05/08 11:41:26;;;;;;;10.63;3.90;;;23.00;67.60;;;;;;5051733;28;20554;-62
2022/05/08 11:43:54;;;;;;;14.13;4.60;;;23.20;67.80;;;;;;5051505;28;20195;-64
2022/05/08 11:46:32;;;;;;;6.83;3.87;;;23.20;66.50;;;;;;5051643;28;20207;-61
2022/05/08 11:48:58;;;;;;;8.90;4.40;;;23.30;65.10;;;;;;5051630;28;20202;-61
2022/05/08 11:51:25;;;;;;;14.33;4.23;;;23.30;65.30;;;;;;5051175;28;20296;-62
2022/05/08 11:53:54;;;;;;;9.63;4.10;;;23.30;65.10;;;;;;5051350;28;20710;-62
2022/05/08 11:56:27;;;;;;;6.80;4.10;;;23.30;64.10;;;;;;5051185;28;20237;-61
2022/05/08 11:58:54;;;;;;;10.93;4.33;;;23.30;64.80;;;;;;5051359;28;20245;-64
2022/05/08 12:01:23;;;;;;;9.83;4.10;;;23.40;64.90;;;;;;5051323;28;20622;-61
2022/05/08 12:03:50;;;;;;;5.80;3.73;;;23.40;64.10;;;;;;5051036;28;20583;-62
2022/05/08 12:06:17;;;;;;;11.57;4.70;;;23.50;64.20;;;;;;5051333;28;20241;-61
2022/05/08 12:08:43;;;;;;;10.87;4.40;;;23.50;64.10;;;;;;5051219;28;20618;-63
2022/05/08 12:11:30;;;;;;;7.40;4.03;;;23.60;64.30;;;;;;5051311;28;20615;-62
2022/05/08 12:14:02;;;;;;;10.40;3.60;;;23.60;64.10;;;;;;5050929;28;20214;-62
2022/05/08 12:16:31;;;;;;;7.63;4.00;;;23.70;63.90;;;;;;5051039;28;20614;-62
2022/05/08 12:19:15;;;;;;;8.50;5.07;;;23.70;64.30;;;;;;5051199;28;20570;-62
2022/05/08 12:21:44;;;;;;;6.53;4.20;;;23.80;65.10;;;;;;5050789;28;20567;-62
2022/05/08 12:24:12;;;;;;;7.77;4.13;;;23.70;64.40;;;;;;5051264;28;20261;-62
2022/05/08 12:26:40;;;;;;;6.57;3.70;;;23.80;65.00;;;;;;5050738;28;20218;-62
2022/05/08 12:29:08;;;;;;;7.43;4.07;;;23.80;65.40;;;;;;5051268;28;20205;-62
2022/05/08 12:31:36;;;;;;;7.90;4.00;;;23.80;64.90;;;;;;5050772;28;20212;-61
2022/05/08 12:34:05;;;;;;;6.37;3.83;;;23.90;65.70;;;;;;5050971;28;20715;-62
2022/05/08 12:36:33;;;;;;;7.20;3.97;;;23.90;65.80;;;;;;5054530;28;20233;-64
2022/05/08 12:38:59;;;;;;;10.13;4.23;;;23.90;66.50;;;;;;5054653;28;20210;-63
2022/05/08 12:41:26;;;;;;;6.33;3.93;;;23.90;66.70;;;;;;5054185;28;20221;-61
2022/05/08 12:43:55;;;;;;;7.93;3.87;;;24.00;66.70;;;;;;5054532;28;20207;-63
2022/05/08 12:46:21;;;;;;;8.13;4.80;;;24.00;65.70;;;;;;5054167;28;20214;-62
2022/05/08 12:48:49;;;;;;;10.33;3.77;;;23.90;65.30;;;;;;5054645;28;20221;-63
2022/05/08 12:51:15;;;;;;;8.77;3.07;;;23.80;66.40;;;;;;5054522;28;20702;-62
2022/05/08 12:53:42;;;;;;;4.80;3.17;;;23.20;69.40;;;;;;5054157;28;20564;-62
2022/05/08 12:56:09;;;;;;;6.63;2.83;;;22.60;71.90;;;;;;5053981;28;20216;-62
2022/05/08 13:01:22;;;;;;;6.93;2.80;;;21.80;74.40;;;;;;5054172;28;20188;-63
2022/05/08 13:03:49;;;;;;;7.43;3.07;;;21.20;75.10;;;;;;5054006;28;20207;-62
2022/05/08 13:06:16;;;;;;;5.17;3.10;;;20.80;77.10;;;;;;5053755;28;20284;-63
2022/05/08 13:08:43;;;;;;;10.83;4.40;;;20.60;78.20;;;;;;5053951;28;20205;-62
2022/05/08 13:11:10;;;;;;;9.83;3.53;;;20.50;78.80;;;;;;5053710;28;20201;-62